sensor_id;sensor_type;location;lat;lon;timestamp;P1;durP1;ratioP1;P2;durP2;ratioP2
13584;SDS011;6863;48.402;9.994;2023-04-12T00:00:32;4.83;;;3.83;;
13584;SDS011;6863;48.402;9.994;2023-04-12T00:02:57;5.73;;;3.47;;
13584;SDS011;6863;48.402;9.994;2023-04-12T00:05:27;4.63;;;3.63;;
13584;SDS011;6863;48.402;9.994;2023-04-12T00:07:54;4.33;;;3.40;;
13584;SDS011;6863;48.402;9.994;2023-04-12T00:10:20;6.93;;;4.20;;
13584;SDS011;6863;48.402;9.994;2023-04-12T00:12:46;4.87;;;3.67;;
13584;SDS011;6863;48.402;9.994;2023-04-12T00:15:13;6.10;;;4.00;;
13584;SDS011;6863;48.402;9.994;2023-04-12T00:17:39;4.57;;;3.73;;
13584;SDS011;6863;48.402;9.994;2023-04-12T00:20:05;3.90;;;3.50;;
13584;SDS011;6863;48.402;9.994;2023-04-12T00:22:36;8.10;;;3.90;;
13584;SDS011;6863;48.402;9.994;2023-04-12T00:25:07;4.27;;;3.37;;
13584;SDS011;6863;48.402;9.994;2023-04-12T00:27:34;6.53;;;3.93;;
13584;SDS011;6863;48.402;9.994;2023-04-12T00:29:59;4.33;;;3.80;;
13584;SDS011;6863;48.402;9.994;2023-04-12T00:32:25;6.20;;;3.60;;
13584;SDS011;6863;48.402;9.994;2023-04-12T00:34:51;4.03;;;3.20;;
13584;SDS011;6863;48.402;9.994;2023-04-12T00:37:17;5.57;;;3.63;;
13584;SDS011;6863;48.402;9.994;2023-04-12T00:39:42;4.57;;;3.40;;
13584;SDS011;6863;48.402;9.994;2023-04-12T00:42:08;3.63;;;3.30;;
13584;SDS011;6863;48.402;9.994;2023-04-12T00:44:34;5.93;;;4.20;;
13584;SDS011;6863;48.402;9.994;2023-04-12T00:47:00;6.53;;;3.53;;
13584;SDS011;6863;48.402;9.994;2023-04-12T00:49:28;6.83;;;3.83;;
13584;SDS011;6863;48.402;9.994;2023-04-12T00:52:03;8.63;;;4.30;;
13584;SDS011;6863;48.402;9.994;2023-04-12T00:54:30;4.93;;;3.73;;
13584;SDS011;6863;48.402;9.994;2023-04-12T00:56:59;6.10;;;3.67;;
13584;SDS011;6863;48.402;9.994;2023-04-12T00:59:25;4.07;;;3.63;;
13584;SDS011;6863;48.402;9.994;2023-04-12T01:01:51;5.17;;;3.77;;
13584;SDS011;6863;48.402;9.994;2023-04-12T01:04:21;4.90;;;3.80;;
13584;SDS011;6863;48.402;9.994;2023-04-12T01:06:53;7.17;;;4.50;;
13584;SDS011;6863;48.402;9.994;2023-04-12T01:09:49;6.27;;;4.33;;
13584;SDS011;6863;48.402;9.994;2023-04-12T01:12:40;9.87;;;4.13;;
13584;SDS011;6863;48.402;9.994;2023-04-12T01:15:25;5.13;;;4.17;;
13584;SDS011;6863;48.402;9.994;2023-04-12T01:17:56;8.93;;;4.40;;
13584;SDS011;6863;48.402;9.994;2023-04-12T01:20:27;6.93;;;4.00;;
13584;SDS011;6863;48.402;9.994;2023-04-12T01:23:05;7.60;;;4.53;;
13584;SDS011;6863;48.402;9.994;2023-04-12T01:28:28;4.67;;;4.07;;
13584;SDS011;6863;48.402;9.994;2023-04-12T01:30:58;6.73;;;4.40;;
13584;SDS011;6863;48.402;9.994;2023-04-12T01:33:27;6.27;;;4.37;;
13584;SDS011;6863;48.402;9.994;2023-04-12T01:35:56;7.53;;;4.50;;
13584;SDS011;6863;48.402;9.994;2023-04-12T01:38:23;5.03;;;4.63;;
13584;SDS011;6863;48.402;9.994;2023-04-12T01:40:49;4.37;;;3.97;;
13584;SDS011;6863;48.402;9.994;2023-04-12T01:43:15;5.33;;;4.43;;
13584;SDS011;6863;48.402;9.994;2023-04-12T01:45:40;7.27;;;4.60;;
13584;SDS011;6863;48.402;9.994;2023-04-12T01:48:07;6.20;;;4.90;;
13584;SDS011;6863;48.402;9.994;2023-04-12T01:50:42;5.87;;;4.50;;
13584;SDS011;6863;48.402;9.994;2023-04-12T01:56:23;7.20;;;4.33;;
13584;SDS011;6863;48.402;9.994;2023-04-12T01:58:54;5.97;;;4.73;;
13584;SDS011;6863;48.402;9.994;2023-04-12T02:01:21;4.90;;;4.37;;
13584;SDS011;6863;48.402;9.994;2023-04-12T02:03:47;4.83;;;4.33;;
13584;SDS011;6863;48.402;9.994;2023-04-12T02:06:14;6.97;;;4.87;;
13584;SDS011;6863;48.402;9.994;2023-04-12T02:08:42;9.07;;;5.07;;
13584;SDS011;6863;48.402;9.994;2023-04-12T02:11:09;6.47;;;4.67;;
13584;SDS011;6863;48.402;9.994;2023-04-12T02:13:35;8.57;;;4.50;;
13584;SDS011;6863;48.402;9.994;2023-04-12T02:16:01;8.30;;;5.07;;
13584;SDS011;6863;48.402;9.994;2023-04-12T02:18:27;7.67;;;4.57;;
13584;SDS011;6863;48.402;9.994;2023-04-12T02:20:53;6.60;;;4.50;;
13584;SDS011;6863;48.402;9.994;2023-04-12T02:23:19;6.17;;;4.17;;
13584;SDS011;6863;48.402;9.994;2023-04-12T02:25:45;7.47;;;4.37;;
13584;SDS011;6863;48.402;9.994;2023-04-12T02:28:11;5.77;;;4.10;;
13584;SDS011;6863;48.402;9.994;2023-04-12T02:30:37;5.90;;;4.43;;
13584;SDS011;6863;48.402;9.994;2023-04-12T02:33:05;5.50;;;4.30;;
13584;SDS011;6863;48.402;9.994;2023-04-12T02:35:33;5.33;;;4.60;;
13584;SDS011;6863;48.402;9.994;2023-04-12T02:38:00;7.27;;;4.10;;
13584;SDS011;6863;48.402;9.994;2023-04-12T02:40:38;4.93;;;4.07;;
13584;SDS011;6863;48.402;9.994;2023-04-12T02:43:08;4.27;;;3.87;;
13584;SDS011;6863;48.402;9.994;2023-04-12T02:45:33;6.83;;;4.77;;
13584;SDS011;6863;48.402;9.994;2023-04-12T02:47:59;6.90;;;5.27;;
13584;SDS011;6863;48.402;9.994;2023-04-12T02:50:25;7.73;;;4.17;;
13584;SDS011;6863;48.402;9.994;2023-04-12T02:52:51;6.10;;;4.80;;
13584;SDS011;6863;48.402;9.994;2023-04-12T02:55:16;6.93;;;4.30;;
13584;SDS011;6863;48.402;9.994;2023-04-12T02:57:45;6.70;;;4.03;;
13584;SDS011;6863;48.402;9.994;2023-04-12T03:00:12;6.20;;;4.50;;
13584;SDS011;6863;48.402;9.994;2023-04-12T03:02:41;4.40;;;4.00;;
13584;SDS011;6863;48.402;9.994;2023-04-12T03:05:07;5.53;;;4.20;;
13584;SDS011;6863;48.402;9.994;2023-04-12T03:07:33;6.10;;;4.30;;
13584;SDS011;6863;48.402;9.994;2023-04-12T03:10:02;7.30;;;5.00;;
13584;SDS011;6863;48.402;9.994;2023-04-12T03:12:31;3.87;;;3.50;;
13584;SDS011;6863;48.402;9.994;2023-04-12T03:14:57;4.63;;;4.13;;
13584;SDS011;6863;48.402;9.994;2023-04-12T03:17:22;7.37;;;4.33;;
13584;SDS011;6863;48.402;9.994;2023-04-12T03:19:48;4.00;;;3.60;;
13584;SDS011;6863;48.402;9.994;2023-04-12T03:22:14;3.80;;;3.50;;
13584;SDS011;6863;48.402;9.994;2023-04-12T03:24:39;4.07;;;3.67;;
13584;SDS011;6863;48.402;9.994;2023-04-12T03:27:06;4.00;;;3.60;;
13584;SDS011;6863;48.402;9.994;2023-04-12T03:29:32;4.73;;;4.17;;
13584;SDS011;6863;48.402;9.994;2023-04-12T03:31:58;4.23;;;3.50;;
13584;SDS011;6863;48.402;9.994;2023-04-12T03:34:27;4.40;;;3.60;;
13584;SDS011;6863;48.402;9.994;2023-04-12T03:36:59;4.60;;;3.63;;
13584;SDS011;6863;48.402;9.994;2023-04-12T03:39:25;4.67;;;3.83;;
13584;SDS011;6863;48.402;9.994;2023-04-12T03:41:51;4.37;;;3.97;;
13584;SDS011;6863;48.402;9.994;2023-04-12T03:44:17;4.10;;;3.60;;
13584;SDS011;6863;48.402;9.994;2023-04-12T03:46:43;3.77;;;3.47;;
13584;SDS011;6863;48.402;9.994;2023-04-12T03:49:09;8.00;;;3.83;;
13584;SDS011;6863;48.402;9.994;2023-04-12T03:51:36;4.60;;;4.20;;
13584;SDS011;6863;48.402;9.994;2023-04-12T03:54:06;4.47;;;3.83;;
13584;SDS011;6863;48.402;9.994;2023-04-12T03:56:33;4.03;;;3.67;;
13584;SDS011;6863;48.402;9.994;2023-04-12T03:58:58;4.33;;;3.93;;
13584;SDS011;6863;48.402;9.994;2023-04-12T04:01:24;5.03;;;3.83;;
13584;SDS011;6863;48.402;9.994;2023-04-12T04:03:50;5.10;;;3.57;;
13584;SDS011;6863;48.402;9.994;2023-04-12T04:06:15;5.13;;;4.00;;
13584;SDS011;6863;48.402;9.994;2023-04-12T04:08:41;5.63;;;3.80;;
13584;SDS011;6863;48.402;9.994;2023-04-12T04:11:13;4.33;;;3.80;;
13584;SDS011;6863;48.402;9.994;2023-04-12T04:13:39;4.03;;;3.60;;
13584;SDS011;6863;48.402;9.994;2023-04-12T04:16:05;3.50;;;3.20;;
13584;SDS011;6863;48.402;9.994;2023-04-12T04:18:33;6.00;;;3.90;;
13584;SDS011;6863;48.402;9.994;2023-04-12T04:20:59;6.40;;;3.50;;
13584;SDS011;6863;48.402;9.994;2023-04-12T04:23:25;3.93;;;3.10;;
13584;SDS011;6863;48.402;9.994;2023-04-12T04:25:53;3.30;;;3.10;;
13584;SDS011;6863;48.402;9.994;2023-04-12T04:28:19;5.07;;;3.50;;
13584;SDS011;6863;48.402;9.994;2023-04-12T04:30:44;4.20;;;3.40;;
13584;SDS011;6863;48.402;9.994;2023-04-12T04:33:10;3.37;;;3.07;;
13584;SDS011;6863;48.402;9.994;2023-04-12T04:35:40;4.07;;;3.57;;
13584;SDS011;6863;48.402;9.994;2023-04-12T04:38:07;3.57;;;3.13;;
13584;SDS011;6863;48.402;9.994;2023-04-12T04:40:35;4.67;;;3.00;;
13584;SDS011;6863;48.402;9.994;2023-04-12T04:43:02;3.77;;;3.40;;
13584;SDS011;6863;48.402;9.994;2023-04-12T04:47:53;4.00;;;3.10;;
13584;SDS011;6863;48.402;9.994;2023-04-12T04:50:20;4.20;;;2.90;;
13584;SDS011;6863;48.402;9.994;2023-04-12T04:52:46;3.50;;;3.20;;
13584;SDS011;6863;48.402;9.994;2023-04-12T04:55:13;3.67;;;3.00;;
13584;SDS011;6863;48.402;9.994;2023-04-12T04:57:39;3.10;;;2.80;;
13584;SDS011;6863;48.402;9.994;2023-04-12T05:00:05;3.10;;;2.80;;
13584;SDS011;6863;48.402;9.994;2023-04-12T05:02:38;2.90;;;2.70;;
13584;SDS011;6863;48.402;9.994;2023-04-12T05:05:06;3.80;;;2.70;;
13584;SDS011;6863;48.402;9.994;2023-04-12T05:07:36;3.37;;;2.70;;
13584;SDS011;6863;48.402;9.994;2023-04-12T05:10:03;3.30;;;3.00;;
13584;SDS011;6863;48.402;9.994;2023-04-12T05:12:29;3.07;;;2.77;;
13584;SDS011;6863;48.402;9.994;2023-04-12T05:14:56;3.27;;;3.00;;
13584;SDS011;6863;48.402;9.994;2023-04-12T05:17:23;3.93;;;2.50;;
13584;SDS011;6863;48.402;9.994;2023-04-12T05:19:49;4.53;;;3.10;;
13584;SDS011;6863;48.402;9.994;2023-04-12T05:22:14;3.50;;;3.20;;
13584;SDS011;6863;48.402;9.994;2023-04-12T05:24:44;3.37;;;2.90;;
13584;SDS011;6863;48.402;9.994;2023-04-12T05:27:10;4.57;;;3.83;;
13584;SDS011;6863;48.402;9.994;2023-04-12T05:29:35;4.20;;;3.60;;
13584;SDS011;6863;48.402;9.994;2023-04-12T05:32:01;6.33;;;4.60;;
13584;SDS011;6863;48.402;9.994;2023-04-12T05:34:27;6.47;;;4.40;;
13584;SDS011;6863;48.402;9.994;2023-04-12T05:36:52;5.13;;;3.83;;
13584;SDS011;6863;48.402;9.994;2023-04-12T05:39:18;5.07;;;4.43;;
13584;SDS011;6863;48.402;9.994;2023-04-12T05:41:44;5.10;;;4.33;;
13584;SDS011;6863;48.402;9.994;2023-04-12T05:44:09;5.50;;;5.00;;
13584;SDS011;6863;48.402;9.994;2023-04-12T05:46:35;5.73;;;4.90;;
13584;SDS011;6863;48.402;9.994;2023-04-12T05:49:01;4.73;;;4.20;;
13584;SDS011;6863;48.402;9.994;2023-04-12T05:51:27;9.77;;;6.07;;
13584;SDS011;6863;48.402;9.994;2023-04-12T05:53:53;5.70;;;4.70;;
13584;SDS011;6863;48.402;9.994;2023-04-12T05:56:18;6.50;;;4.70;;
13584;SDS011;6863;48.402;9.994;2023-04-12T05:58:44;4.90;;;4.33;;
13584;SDS011;6863;48.402;9.994;2023-04-12T06:01:11;6.07;;;3.50;;
13584;SDS011;6863;48.402;9.994;2023-04-12T06:03:36;5.03;;;4.00;;
13584;SDS011;6863;48.402;9.994;2023-04-12T06:06:05;4.13;;;3.47;;
13584;SDS011;6863;48.402;9.994;2023-04-12T06:08:31;6.67;;;3.57;;
13584;SDS011;6863;48.402;9.994;2023-04-12T06:10:57;4.67;;;4.23;;
13584;SDS011;6863;48.402;9.994;2023-04-12T06:13:22;5.07;;;4.33;;
13584;SDS011;6863;48.402;9.994;2023-04-12T06:15:48;4.03;;;3.60;;
13584;SDS011;6863;48.402;9.994;2023-04-12T06:18:13;3.73;;;2.90;;
13584;SDS011;6863;48.402;9.994;2023-04-12T06:20:40;3.80;;;3.30;;
13584;SDS011;6863;48.402;9.994;2023-04-12T06:23:05;4.80;;;3.83;;
13584;SDS011;6863;48.402;9.994;2023-04-12T06:25:32;4.60;;;4.20;;
13584;SDS011;6863;48.402;9.994;2023-04-12T06:27:58;5.17;;;3.20;;
13584;SDS011;6863;48.402;9.994;2023-04-12T06:30:23;4.83;;;3.50;;
13584;SDS011;6863;48.402;9.994;2023-04-12T06:32:49;9.77;;;7.93;;
13584;SDS011;6863;48.402;9.994;2023-04-12T06:35:15;5.20;;;3.77;;
13584;SDS011;6863;48.402;9.994;2023-04-12T06:37:41;6.33;;;3.93;;
13584;SDS011;6863;48.402;9.994;2023-04-12T06:40:06;4.43;;;3.97;;
13584;SDS011;6863;48.402;9.994;2023-04-12T06:42:32;4.43;;;3.97;;
13584;SDS011;6863;48.402;9.994;2023-04-12T06:44:58;5.80;;;3.93;;
13584;SDS011;6863;48.402;9.994;2023-04-12T06:47:24;5.47;;;4.23;;
13584;SDS011;6863;48.402;9.994;2023-04-12T06:49:49;4.70;;;3.90;;
13584;SDS011;6863;48.402;9.994;2023-04-12T06:52:19;3.93;;;3.60;;
13584;SDS011;6863;48.402;9.994;2023-04-12T06:54:51;3.70;;;3.40;;
13584;SDS011;6863;48.402;9.994;2023-04-12T06:57:17;7.27;;;4.57;;
13584;SDS011;6863;48.402;9.994;2023-04-12T06:59:42;4.83;;;3.83;;
13584;SDS011;6863;48.402;9.994;2023-04-12T07:02:08;5.13;;;3.80;;
13584;SDS011;6863;48.402;9.994;2023-04-12T07:04:34;4.77;;;4.00;;
13584;SDS011;6863;48.402;9.994;2023-04-12T07:07:00;5.03;;;3.70;;
13584;SDS011;6863;48.402;9.994;2023-04-12T07:09:25;5.47;;;3.93;;
13584;SDS011;6863;48.402;9.994;2023-04-12T07:11:51;6.77;;;4.77;;
13584;SDS011;6863;48.402;9.994;2023-04-12T07:14:17;3.93;;;3.53;;
13584;SDS011;6863;48.402;9.994;2023-04-12T07:16:42;3.33;;;3.10;;
13584;SDS011;6863;48.402;9.994;2023-04-12T07:19:08;3.83;;;3.43;;
13584;SDS011;6863;48.402;9.994;2023-04-12T07:21:34;5.83;;;3.00;;
13584;SDS011;6863;48.402;9.994;2023-04-12T07:23:59;5.80;;;3.70;;
13584;SDS011;6863;48.402;9.994;2023-04-12T07:26:25;3.50;;;3.20;;
13584;SDS011;6863;48.402;9.994;2023-04-12T07:28:51;5.43;;;3.13;;
13584;SDS011;6863;48.402;9.994;2023-04-12T07:31:16;4.53;;;3.43;;
13584;SDS011;6863;48.402;9.994;2023-04-12T07:33:42;4.77;;;4.20;;
13584;SDS011;6863;48.402;9.994;2023-04-12T07:36:08;3.90;;;3.60;;
13584;SDS011;6863;48.402;9.994;2023-04-12T07:38:34;3.87;;;3.40;;
13584;SDS011;6863;48.402;9.994;2023-04-12T07:41:00;4.83;;;3.70;;
13584;SDS011;6863;48.402;9.994;2023-04-12T07:43:25;4.90;;;4.10;;
13584;SDS011;6863;48.402;9.994;2023-04-12T07:45:53;4.10;;;3.70;;
13584;SDS011;6863;48.402;9.994;2023-04-12T07:48:19;3.50;;;3.20;;
13584;SDS011;6863;48.402;9.994;2023-04-12T07:50:45;4.10;;;3.33;;
13584;SDS011;6863;48.402;9.994;2023-04-12T07:53:21;3.73;;;3.30;;
13584;SDS011;6863;48.402;9.994;2023-04-12T07:55:51;4.03;;;3.00;;
13584;SDS011;6863;48.402;9.994;2023-04-12T07:58:18;3.50;;;3.20;;
13584;SDS011;6863;48.402;9.994;2023-04-12T08:00:46;3.17;;;2.93;;
13584;SDS011;6863;48.402;9.994;2023-04-12T08:03:12;3.50;;;3.20;;
13584;SDS011;6863;48.402;9.994;2023-04-12T08:05:39;4.20;;;3.10;;
13584;SDS011;6863;48.402;9.994;2023-04-12T08:08:06;3.47;;;3.27;;
13584;SDS011;6863;48.402;9.994;2023-04-12T08:10:34;3.43;;;3.10;;
13584;SDS011;6863;48.402;9.994;2023-04-12T08:13:01;3.03;;;2.80;;
13584;SDS011;6863;48.402;9.994;2023-04-12T08:15:27;2.83;;;2.63;;
13584;SDS011;6863;48.402;9.994;2023-04-12T08:17:53;3.13;;;2.90;;
13584;SDS011;6863;48.402;9.994;2023-04-12T08:20:19;4.33;;;3.20;;
13584;SDS011;6863;48.402;9.994;2023-04-12T08:22:44;2.67;;;2.47;;
13584;SDS011;6863;48.402;9.994;2023-04-12T08:25:10;3.40;;;2.67;;
13584;SDS011;6863;48.402;9.994;2023-04-12T08:27:38;5.23;;;3.40;;
13584;SDS011;6863;48.402;9.994;2023-04-12T08:30:05;4.00;;;3.27;;
13584;SDS011;6863;48.402;9.994;2023-04-12T08:32:32;3.17;;;2.57;;
13584;SDS011;6863;48.402;9.994;2023-04-12T08:34:58;4.97;;;2.87;;
13584;SDS011;6863;48.402;9.994;2023-04-12T08:37:24;3.03;;;2.80;;
13584;SDS011;6863;48.402;9.994;2023-04-12T08:39:50;4.60;;;3.37;;
13584;SDS011;6863;48.402;9.994;2023-04-12T08:42:15;4.07;;;3.10;;
13584;SDS011;6863;48.402;9.994;2023-04-12T08:44:42;3.00;;;2.77;;
13584;SDS011;6863;48.402;9.994;2023-04-12T08:47:08;3.40;;;3.10;;
13584;SDS011;6863;48.402;9.994;2023-04-12T08:49:35;3.30;;;3.00;;
13584;SDS011;6863;48.402;9.994;2023-04-12T08:52:10;3.30;;;3.10;;
13584;SDS011;6863;48.402;9.994;2023-04-12T08:54:36;3.13;;;2.83;;
13584;SDS011;6863;48.402;9.994;2023-04-12T08:57:03;3.37;;;2.57;;
13584;SDS011;6863;48.402;9.994;2023-04-12T08:59:30;3.17;;;2.87;;
13584;SDS011;6863;48.402;9.994;2023-04-12T09:01:59;4.87;;;3.47;;
13584;SDS011;6863;48.402;9.994;2023-04-12T09:04:25;2.97;;;2.77;;
13584;SDS011;6863;48.402;9.994;2023-04-12T09:06:54;2.77;;;2.47;;
13584;SDS011;6863;48.402;9.994;2023-04-12T09:12:11;3.30;;;3.10;;
13584;SDS011;6863;48.402;9.994;2023-04-12T09:14:41;2.80;;;2.30;;
13584;SDS011;6863;48.402;9.994;2023-04-12T09:17:25;3.77;;;2.83;;
13584;SDS011;6863;48.402;9.994;2023-04-12T09:19:52;3.63;;;2.70;;
13584;SDS011;6863;48.402;9.994;2023-04-12T09:22:37;3.57;;;2.63;;
13584;SDS011;6863;48.402;9.994;2023-04-12T09:25:08;3.60;;;2.70;;
13584;SDS011;6863;48.402;9.994;2023-04-12T09:30:12;2.43;;;2.30;;
13584;SDS011;6863;48.402;9.994;2023-04-12T09:32:39;2.50;;;2.33;;
13584;SDS011;6863;48.402;9.994;2023-04-12T09:35:05;2.60;;;2.40;;
13584;SDS011;6863;48.402;9.994;2023-04-12T09:37:31;2.80;;;2.60;;
13584;SDS011;6863;48.402;9.994;2023-04-12T09:39:58;3.13;;;2.87;;
13584;SDS011;6863;48.402;9.994;2023-04-12T09:42:28;3.80;;;3.50;;
13584;SDS011;6863;48.402;9.994;2023-04-12T09:44:55;3.47;;;3.17;;
13584;SDS011;6863;48.402;9.994;2023-04-12T09:47:22;8.53;;;7.23;;
13584;SDS011;6863;48.402;9.994;2023-04-12T09:50:01;3.00;;;2.80;;
13584;SDS011;6863;48.402;9.994;2023-04-12T09:52:33;3.87;;;2.80;;
13584;SDS011;6863;48.402;9.994;2023-04-12T09:55:00;3.13;;;2.93;;
13584;SDS011;6863;48.402;9.994;2023-04-12T09:57:27;3.30;;;3.00;;
13584;SDS011;6863;48.402;9.994;2023-04-12T09:59:53;3.17;;;2.87;;
13584;SDS011;6863;48.402;9.994;2023-04-12T10:02:26;3.20;;;2.80;;
13584;SDS011;6863;48.402;9.994;2023-04-12T10:04:52;3.30;;;2.87;;
13584;SDS011;6863;48.402;9.994;2023-04-12T10:07:18;3.20;;;2.77;;
13584;SDS011;6863;48.402;9.994;2023-04-12T10:09:44;3.00;;;2.70;;
13584;SDS011;6863;48.402;9.994;2023-04-12T10:12:10;3.07;;;2.87;;
13584;SDS011;6863;48.402;9.994;2023-04-12T10:14:36;3.33;;;3.03;;
13584;SDS011;6863;48.402;9.994;2023-04-12T10:17:03;3.83;;;3.00;;
13584;SDS011;6863;48.402;9.994;2023-04-12T10:19:30;3.30;;;2.90;;
13584;SDS011;6863;48.402;9.994;2023-04-12T10:21:57;4.00;;;3.57;;
13584;SDS011;6863;48.402;9.994;2023-04-12T10:24:24;5.67;;;5.00;;
13584;SDS011;6863;48.402;9.994;2023-04-12T10:26:55;4.13;;;3.73;;
13584;SDS011;6863;48.402;9.994;2023-04-12T10:29:27;3.53;;;3.23;;
13584;SDS011;6863;48.402;9.994;2023-04-12T10:31:55;3.90;;;3.60;;
13584;SDS011;6863;48.402;9.994;2023-04-12T10:34:23;4.20;;;3.90;;
13584;SDS011;6863;48.402;9.994;2023-04-12T10:36:56;6.43;;;5.90;;
13584;SDS011;6863;48.402;9.994;2023-04-12T10:42:22;3.80;;;3.50;;
13584;SDS011;6863;48.402;9.994;2023-04-12T10:44:51;4.63;;;4.20;;
13584;SDS011;6863;48.402;9.994;2023-04-12T10:50:23;4.37;;;3.87;;
13584;SDS011;6863;48.402;9.994;2023-04-12T10:55:39;5.90;;;5.30;;
13584;SDS011;6863;48.402;9.994;2023-04-12T10:58:06;4.17;;;3.77;;
13584;SDS011;6863;48.402;9.994;2023-04-12T11:03:26;3.73;;;3.43;;
13584;SDS011;6863;48.402;9.994;2023-04-12T11:05:58;4.10;;;3.60;;
13584;SDS011;6863;48.402;9.994;2023-04-12T11:08:30;3.80;;;3.50;;
13584;SDS011;6863;48.402;9.994;2023-04-12T11:11:04;4.17;;;3.77;;
13584;SDS011;6863;48.402;9.994;2023-04-12T11:13:41;3.40;;;3.10;;
13584;SDS011;6863;48.402;9.994;2023-04-12T11:16:09;4.07;;;3.77;;
13584;SDS011;6863;48.402;9.994;2023-04-12T11:18:37;3.70;;;3.40;;
13584;SDS011;6863;48.402;9.994;2023-04-12T11:21:03;3.67;;;3.37;;
13584;SDS011;6863;48.402;9.994;2023-04-12T11:23:29;3.50;;;3.30;;
13584;SDS011;6863;48.402;9.994;2023-04-12T11:25:55;3.53;;;3.23;;
13584;SDS011;6863;48.402;9.994;2023-04-12T11:28:22;3.97;;;3.57;;
13584;SDS011;6863;48.402;9.994;2023-04-12T11:30:54;3.80;;;3.50;;
13584;SDS011;6863;48.402;9.994;2023-04-12T11:36:05;3.43;;;3.20;;
13584;SDS011;6863;48.402;9.994;2023-04-12T11:38:33;4.07;;;3.20;;
13584;SDS011;6863;48.402;9.994;2023-04-12T11:41:00;4.73;;;3.30;;
13584;SDS011;6863;48.402;9.994;2023-04-12T11:43:26;3.80;;;3.50;;
13584;SDS011;6863;48.402;9.994;2023-04-12T11:45:56;4.87;;;3.73;;
13584;SDS011;6863;48.402;9.994;2023-04-12T11:48:23;4.27;;;3.87;;
13584;SDS011;6863;48.402;9.994;2023-04-12T11:50:49;3.73;;;3.37;;
13584;SDS011;6863;48.402;9.994;2023-04-12T11:53:15;3.50;;;3.27;;
13584;SDS011;6863;48.402;9.994;2023-04-12T11:55:49;3.33;;;3.13;;
13584;SDS011;6863;48.402;9.994;2023-04-12T11:58:21;3.70;;;3.40;;
13584;SDS011;6863;48.402;9.994;2023-04-12T12:00:48;3.25;;;2.85;;
13584;SDS011;6863;48.402;9.994;2023-04-12T12:03:14;3.85;;;3.10;;
13584;SDS011;6863;48.402;9.994;2023-04-12T12:05:40;4.15;;;3.20;;
13584;SDS011;6863;48.402;9.994;2023-04-12T12:08:09;3.22;;;2.95;;
13584;SDS011;6863;48.402;9.994;2023-04-12T12:10:36;4.28;;;3.17;;
13584;SDS011;6863;48.402;9.994;2023-04-12T12:13:02;3.58;;;3.22;;
13584;SDS011;6863;48.402;9.994;2023-04-12T12:15:33;3.20;;;2.90;;
13584;SDS011;6863;48.402;9.994;2023-04-12T12:17:58;3.20;;;2.90;;
13584;SDS011;6863;48.402;9.994;2023-04-12T12:20:26;3.20;;;2.90;;
13584;SDS011;6863;48.402;9.994;2023-04-12T12:22:51;3.63;;;2.90;;
13584;SDS011;6863;48.402;9.994;2023-04-12T12:25:17;4.38;;;2.63;;
13584;SDS011;6863;48.402;9.994;2023-04-12T12:27:46;3.00;;;2.80;;
13584;SDS011;6863;48.402;9.994;2023-04-12T12:30:16;2.90;;;2.70;;
13584;SDS011;6863;48.402;9.994;2023-04-12T12:32:43;3.08;;;2.78;;
13584;SDS011;6863;48.402;9.994;2023-04-12T12:35:11;3.03;;;2.77;;
13584;SDS011;6863;48.402;9.994;2023-04-12T12:37:47;4.10;;;3.20;;
13584;SDS011;6863;48.402;9.994;2023-04-12T12:40:32;3.17;;;2.60;;
13584;SDS011;6863;48.402;9.994;2023-04-12T12:42:58;3.47;;;2.60;;
13584;SDS011;6863;48.402;9.994;2023-04-12T12:47:51;2.53;;;2.30;;
13584;SDS011;6863;48.402;9.994;2023-04-12T12:50:23;2.85;;;2.55;;
13584;SDS011;6863;48.402;9.994;2023-04-12T12:52:50;2.45;;;2.28;;
13584;SDS011;6863;48.402;9.994;2023-04-12T12:55:16;2.85;;;2.50;;
13584;SDS011;6863;48.402;9.994;2023-04-12T12:57:43;2.70;;;2.50;;
13584;SDS011;6863;48.402;9.994;2023-04-12T13:00:11;2.85;;;2.65;;
13584;SDS011;6863;48.402;9.994;2023-04-12T13:02:39;3.22;;;2.20;;
13584;SDS011;6863;48.402;9.994;2023-04-12T13:05:08;2.30;;;2.10;;
13584;SDS011;6863;48.402;9.994;2023-04-12T13:07:34;2.05;;;1.90;;
13584;SDS011;6863;48.402;9.994;2023-04-12T13:10:00;2.58;;;2.38;;
13584;SDS011;6863;48.402;9.994;2023-04-12T13:12:26;2.92;;;2.33;;
13584;SDS011;6863;48.402;9.994;2023-04-12T13:14:51;3.10;;;2.38;;
13584;SDS011;6863;48.402;9.994;2023-04-12T13:17:17;2.03;;;1.80;;
13584;SDS011;6863;48.402;9.994;2023-04-12T13:19:47;1.90;;;1.80;;
13584;SDS011;6863;48.402;9.994;2023-04-12T13:22:13;2.20;;;1.95;;
13584;SDS011;6863;48.402;9.994;2023-04-12T13:24:40;2.17;;;1.98;;
13584;SDS011;6863;48.402;9.994;2023-04-12T13:27:07;2.15;;;1.90;;
13584;SDS011;6863;48.402;9.994;2023-04-12T13:29:32;2.72;;;1.80;;
13584;SDS011;6863;48.402;9.994;2023-04-12T13:31:58;2.88;;;1.88;;
13584;SDS011;6863;48.402;9.994;2023-04-12T13:34:24;2.13;;;1.95;;
13584;SDS011;6863;48.402;9.994;2023-04-12T13:36:50;1.67;;;1.58;;
13584;SDS011;6863;48.402;9.994;2023-04-12T13:39:16;2.03;;;1.60;;
13584;SDS011;6863;48.402;9.994;2023-04-12T13:41:42;2.83;;;1.65;;
13584;SDS011;6863;48.402;9.994;2023-04-12T13:44:07;1.77;;;1.30;;
13584;SDS011;6863;48.402;9.994;2023-04-12T13:46:33;3.05;;;1.83;;
13584;SDS011;6863;48.402;9.994;2023-04-12T13:48:59;2.78;;;1.63;;
13584;SDS011;6863;48.402;9.994;2023-04-12T13:51:30;1.60;;;1.50;;
13584;SDS011;6863;48.402;9.994;2023-04-12T13:53:56;1.40;;;1.30;;
13584;SDS011;6863;48.402;9.994;2023-04-12T13:56:22;4.38;;;1.70;;
13584;SDS011;6863;48.402;9.994;2023-04-12T13:58:48;1.87;;;1.50;;
13584;SDS011;6863;48.402;9.994;2023-04-12T14:01:14;1.60;;;1.50;;
13584;SDS011;6863;48.402;9.994;2023-04-12T14:03:39;2.30;;;1.30;;
13584;SDS011;6863;48.402;9.994;2023-04-12T14:06:05;1.43;;;1.33;;
13584;SDS011;6863;48.402;9.994;2023-04-12T14:08:32;2.20;;;1.50;;
13584;SDS011;6863;48.402;9.994;2023-04-12T14:10:58;2.38;;;1.50;;
13584;SDS011;6863;48.402;9.994;2023-04-12T14:13:25;2.78;;;1.20;;
13584;SDS011;6863;48.402;9.994;2023-04-12T14:15:51;2.10;;;1.63;;
13584;SDS011;6863;48.402;9.994;2023-04-12T14:18:17;1.37;;;1.27;;
13584;SDS011;6863;48.402;9.994;2023-04-12T14:20:44;2.50;;;1.50;;
13584;SDS011;6863;48.402;9.994;2023-04-12T14:23:16;2.30;;;1.37;;
13584;SDS011;6863;48.402;9.994;2023-04-12T14:25:41;1.27;;;1.23;;
13584;SDS011;6863;48.402;9.994;2023-04-12T14:28:07;1.30;;;1.20;;
13584;SDS011;6863;48.402;9.994;2023-04-12T14:30:33;1.63;;;1.30;;
13584;SDS011;6863;48.402;9.994;2023-04-12T14:32:58;1.40;;;1.30;;
13584;SDS011;6863;48.402;9.994;2023-04-12T14:35:24;2.10;;;1.30;;
13584;SDS011;6863;48.402;9.994;2023-04-12T14:37:50;1.43;;;1.33;;
13584;SDS011;6863;48.402;9.994;2023-04-12T14:40:15;1.30;;;1.20;;
13584;SDS011;6863;48.402;9.994;2023-04-12T14:42:42;1.47;;;1.33;;
13584;SDS011;6863;48.402;9.994;2023-04-12T14:45:11;1.90;;;1.30;;
13584;SDS011;6863;48.402;9.994;2023-04-12T14:47:36;1.30;;;1.20;;
13584;SDS011;6863;48.402;9.994;2023-04-12T14:50:02;1.33;;;1.23;;
13584;SDS011;6863;48.402;9.994;2023-04-12T14:52:28;4.13;;;1.50;;
13584;SDS011;6863;48.402;9.994;2023-04-12T14:54:54;1.90;;;1.00;;
13584;SDS011;6863;48.402;9.994;2023-04-12T14:57:19;2.33;;;1.20;;
13584;SDS011;6863;48.402;9.994;2023-04-12T14:59:45;2.20;;;1.40;;
13584;SDS011;6863;48.402;9.994;2023-04-12T15:02:11;1.33;;;1.23;;
13584;SDS011;6863;48.402;9.994;2023-04-12T15:04:36;1.37;;;1.27;;
13584;SDS011;6863;48.402;9.994;2023-04-12T15:07:05;1.30;;;1.30;;
13584;SDS011;6863;48.402;9.994;2023-04-12T15:09:31;1.37;;;1.30;;
13584;SDS011;6863;48.402;9.994;2023-04-12T15:11:56;1.30;;;1.20;;
13584;SDS011;6863;48.402;9.994;2023-04-12T15:14:28;1.60;;;1.37;;
13584;SDS011;6863;48.402;9.994;2023-04-12T15:16:54;2.50;;;1.50;;
13584;SDS011;6863;48.402;9.994;2023-04-12T15:19:19;1.43;;;1.20;;
13584;SDS011;6863;48.402;9.994;2023-04-12T15:21:51;1.93;;;1.43;;
13584;SDS011;6863;48.402;9.994;2023-04-12T15:24:20;2.03;;;1.20;;
13584;SDS011;6863;48.402;9.994;2023-04-12T15:26:49;2.23;;;1.63;;
13584;SDS011;6863;48.402;9.994;2023-04-12T15:29:16;1.67;;;1.57;;
13584;SDS011;6863;48.402;9.994;2023-04-12T15:31:43;1.50;;;1.40;;